createdAt,value
2022-12-05T00:03:37.043Z,29.43
2022-12-05T00:08:46.326Z,28.73
2022-12-05T00:13:54.778Z,33.40
2022-12-05T00:19:02.724Z,30.57
2022-12-05T00:24:14.608Z,29.00
2022-12-05T00:29:22.741Z,24.97
2022-12-05T00:34:30.528Z,23.50
2022-12-05T00:39:38.551Z,27.70
2022-12-05T00:44:46.193Z,27.20
2022-12-05T00:49:54.113Z,28.77
2022-12-05T00:55:01.914Z,27.10
2022-12-05T01:00:10.538Z,26.13
2022-12-05T01:05:19.516Z,25.50
2022-12-05T01:10:28.129Z,27.10
2022-12-05T01:15:38.995Z,25.67
2022-12-05T01:20:46.664Z,26.00
2022-12-05T01:25:56.840Z,27.90
2022-12-05T01:31:11.173Z,25.73
2022-12-05T01:36:19.442Z,29.43
2022-12-05T01:41:31.763Z,29.63
2022-12-05T01:46:41.256Z,29.07
2022-12-05T01:51:51.903Z,30.77
2022-12-05T01:57:02.484Z,29.53
2022-12-05T02:02:10.125Z,29.23
2022-12-05T02:07:18.874Z,24.77
2022-12-05T02:12:27.546Z,25.33
2022-12-05T02:18:00.777Z,25.43
2022-12-05T02:23:18.017Z,26.40
2022-12-05T02:28:45.038Z,23.70
2022-12-05T02:33:59.830Z,25.17
2022-12-05T02:39:18.860Z,22.60
2022-12-05T02:44:29.925Z,24.63
2022-12-05T02:49:38.191Z,26.70
2022-12-05T02:54:47.474Z,24.43
2022-12-05T02:59:56.636Z,26.50
2022-12-05T03:05:19.927Z,23.50
2022-12-05T03:10:29.472Z,22.30
2022-12-05T03:15:41.159Z,25.33
2022-12-05T03:21:23.093Z,21.50
2022-12-05T03:26:37.745Z,25.27
2022-12-05T03:32:00.784Z,25.13
2022-12-05T03:37:11.196Z,23.77
2022-12-05T03:42:21.939Z,21.07
2022-12-05T03:47:41.675Z,24.63
2022-12-05T03:53:18.507Z,24.97
2022-12-05T03:58:06.042Z,21.83
2022-12-05T04:03:18.054Z,22.87
2022-12-05T04:08:28.772Z,21.70
2022-12-05T04:13:54.116Z,23.03
2022-12-05T04:19:15.606Z,25.03
2022-12-05T04:24:36.886Z,24.97
2022-12-05T04:29:47.907Z,23.27
2022-12-05T04:34:58.767Z,25.07
2022-12-05T04:40:09.800Z,24.77
2022-12-05T04:45:19.423Z,22.90
2022-12-05T04:50:29.069Z,24.00
2022-12-05T04:55:37.249Z,25.90
2022-12-05T05:00:48.807Z,20.97
2022-12-05T05:05:57.179Z,22.87
2022-12-05T05:11:21.641Z,23.83
2022-12-05T05:16:32.527Z,23.53
2022-12-05T05:21:42.087Z,23.77
2022-12-05T05:26:55.548Z,22.53
2022-12-05T05:31:59.586Z,22.90
2022-12-05T05:37:08.854Z,22.67
2022-12-05T05:42:16.826Z,19.97
2022-12-05T05:47:25.531Z,18.87
2022-12-05T05:52:37.070Z,23.17
2022-12-05T05:57:44.694Z,23.40
2022-12-05T06:02:52.919Z,22.33
2022-12-05T06:08:00.831Z,23.50
2022-12-05T06:13:08.569Z,22.70
2022-12-05T06:18:16.273Z,21.67
2022-12-05T06:23:24.164Z,23.67
2022-12-05T06:28:31.793Z,21.77
2022-12-05T06:33:39.701Z,20.67
2022-12-05T06:38:47.406Z,20.27
2022-12-05T06:44:01.687Z,22.83
2022-12-05T06:49:06.963Z,18.40
2022-12-05T06:54:15.302Z,21.63
2022-12-05T06:59:23.011Z,20.80
2022-12-05T07:04:30.667Z,22.27
2022-12-05T07:09:49.501Z,23.23
2022-12-05T07:14:57.353Z,20.60
2022-12-05T07:20:06.788Z,20.90
2022-12-05T07:25:15.483Z,19.87
2022-12-05T07:30:23.120Z,19.43
2022-12-05T07:35:31.001Z,19.00
2022-12-05T07:40:38.983Z,20.20
2022-12-05T07:45:46.931Z,19.47
2022-12-05T07:50:54.694Z,20.47
2022-12-05T07:56:06.739Z,20.17
2022-12-05T08:01:16.714Z,20.23
2022-12-05T08:06:27.322Z,22.80
2022-12-05T08:11:36.386Z,21.07
2022-12-05T08:16:44.068Z,21.77
2022-12-05T08:21:52.617Z,19.63
2022-12-05T08:27:01.669Z,19.37
2022-12-05T08:32:10.142Z,20.47
2022-12-05T08:37:17.792Z,21.97
2022-12-05T08:42:25.405Z,19.63
2022-12-05T08:47:33.398Z,22.93
2022-12-05T08:52:41.494Z,20.20
2022-12-05T08:57:49.444Z,22.73
2022-12-05T09:02:57.153Z,20.23
2022-12-05T09:08:05.378Z,21.50
2022-12-05T09:13:14.475Z,21.90
2022-12-05T09:18:22.580Z,22.40
2022-12-05T09:23:30.287Z,21.77
2022-12-05T09:28:40.265Z,23.13
2022-12-05T09:33:48.167Z,23.13
2022-12-05T09:38:56.419Z,23.67
2022-12-05T09:44:06.592Z,23.27
2022-12-05T09:49:14.954Z,23.10
2022-12-05T09:54:22.718Z,21.83
2022-12-05T09:59:30.639Z,21.00
2022-12-05T10:05:00.616Z,23.27
2022-12-05T10:10:27.363Z,21.57
2022-12-05T10:20:54.312Z,23.25
2022-12-05T10:26:04.265Z,22.53
2022-12-05T10:31:15.167Z,24.30
2022-12-05T10:36:25.496Z,22.97
2022-12-05T10:41:33.533Z,22.73
2022-12-05T10:46:41.831Z,22.70
2022-12-05T10:51:49.520Z,22.87
2022-12-05T10:57:00.429Z,22.30
2022-12-05T11:02:11.885Z,20.57
2022-12-05T11:07:34.256Z,22.07
2022-12-05T11:12:42.696Z,23.27
2022-12-05T11:17:51.802Z,23.27
2022-12-05T11:22:59.651Z,21.17
2022-12-05T11:28:22.837Z,23.00
2022-12-05T11:33:38.066Z,24.00
2022-12-05T11:38:45.870Z,24.40
2022-12-05T11:44:12.939Z,26.73
2022-12-05T11:49:39.791Z,25.57
2022-12-05T11:55:06.735Z,28.50
2022-12-05T12:00:15.594Z,29.40
2022-12-05T12:05:38.560Z,26.87
2022-12-05T12:11:00.736Z,26.27
2022-12-05T12:16:20.235Z,28.07
2022-12-05T12:21:56.042Z,29.90
2022-12-05T12:27:25.688Z,27.87
2022-12-05T12:32:52.961Z,28.40
2022-12-05T12:38:11.261Z,26.97
2022-12-05T12:43:52.116Z,32.07
2022-12-05T12:48:48.109Z,29.00
2022-12-05T12:54:02.104Z,28.20
2022-12-05T12:59:20.048Z,29.13
2022-12-05T13:04:39.509Z,29.10
2022-12-05T13:09:57.392Z,30.23
2022-12-05T13:15:14.217Z,28.93
2022-12-05T13:20:22.957Z,28.87
2022-12-05T13:25:32.158Z,29.73
2022-12-05T13:30:42.246Z,30.10
2022-12-05T13:36:10.741Z,31.53
2022-12-05T13:41:36.916Z,31.75
2022-12-05T13:46:45.390Z,29.48
2022-12-05T13:51:53.069Z,28.97
2022-12-05T13:57:02.365Z,31.27
2022-12-05T14:02:49.024Z,28.80
2022-12-05T14:08:02.373Z,29.10
2022-12-05T14:13:19.834Z,31.37
2022-12-05T14:18:48.729Z,29.53
2022-12-05T14:24:14.641Z,29.33
2022-12-05T14:29:42.109Z,31.07
2022-12-05T14:35:12.508Z,31.47
2022-12-05T14:45:37.770Z,28.77
2022-12-05T14:50:51.053Z,31.47
2022-12-05T14:56:04.881Z,32.10
2022-12-05T15:01:20.833Z,34.63
2022-12-05T15:06:29.148Z,32.90
2022-12-05T15:11:36.894Z,35.07
2022-12-05T15:16:46.170Z,31.20
2022-12-05T15:21:58.198Z,34.53
2022-12-05T15:27:07.311Z,34.37
2022-12-05T15:32:17.829Z,32.37
2022-12-05T15:37:31.854Z,30.77
2022-12-05T15:42:44.142Z,33.70
2022-12-05T15:47:58.767Z,34.77
2022-12-05T15:53:39.229Z,33.77
2022-12-05T15:58:51.544Z,33.13
2022-12-05T16:04:02.145Z,36.27
2022-12-05T16:09:25.687Z,33.93
2022-12-05T16:19:49.578Z,34.83
2022-12-05T16:25:02.433Z,33.10
2022-12-05T16:30:23.243Z,36.33
2022-12-05T16:35:40.463Z,35.73
2022-12-05T16:40:52.145Z,38.53
2022-12-05T16:46:02.524Z,36.43
2022-12-05T16:51:17.200Z,39.70
2022-12-05T16:56:30.960Z,41.27
2022-12-05T17:01:39.411Z,42.27
2022-12-05T17:06:47.894Z,40.20
2022-12-05T17:11:59.436Z,37.80
2022-12-05T17:17:13.959Z,40.07
2022-12-05T17:22:21.737Z,41.87
2022-12-05T17:27:30.179Z,31.33
2022-12-05T17:32:38.693Z,33.70
2022-12-05T17:37:46.474Z,40.90
2022-12-05T17:42:54.553Z,39.77
2022-12-05T17:48:02.371Z,40.43
2022-12-05T17:53:16.713Z,44.13
2022-12-05T17:58:26.575Z,40.77
2022-12-05T18:03:35.048Z,45.80
2022-12-05T18:08:51.542Z,52.80
2022-12-05T18:14:11.573Z,57.43
2022-12-05T18:19:43.227Z,56.63
2022-12-05T18:25:18.800Z,51.53
2022-12-05T18:30:30.892Z,53.07
2022-12-05T18:35:42.344Z,48.80
2022-12-05T18:40:52.225Z,48.30
2022-12-05T18:46:05.305Z,50.03
2022-12-05T18:51:21.979Z,47.27
2022-12-05T18:56:32.838Z,52.70
2022-12-05T19:01:42.664Z,51.83
2022-12-05T19:06:58.891Z,44.37
2022-12-05T19:12:09.766Z,39.17
2022-12-05T19:17:23.493Z,42.40
2022-12-05T19:22:33.701Z,54.53
2022-12-05T19:27:43.274Z,57.37
2022-12-05T19:33:01.884Z,45.57
2022-12-05T19:38:12.928Z,45.60
2022-12-05T19:43:20.880Z,47.80
2022-12-05T19:48:28.658Z,42.70
2022-12-05T19:53:39.039Z,46.43
2022-12-05T19:58:47.983Z,54.00
2022-12-05T20:03:58.650Z,64.63
2022-12-05T20:09:08.366Z,70.90
2022-12-05T20:14:18.338Z,65.20
2022-12-05T20:19:26.458Z,56.90
2022-12-05T20:24:36.286Z,61.77
2022-12-05T20:29:45.748Z,60.40
2022-12-05T20:34:53.765Z,60.27
2022-12-05T20:40:02.241Z,64.60
2022-12-05T20:45:10.671Z,59.50
2022-12-05T20:50:19.070Z,52.70
2022-12-05T20:55:28.252Z,49.10
2022-12-05T21:00:37.690Z,45.90
2022-12-05T21:05:45.844Z,40.97
2022-12-05T21:10:54.012Z,37.63
2022-12-05T21:16:10.514Z,37.53
2022-12-05T21:21:19.856Z,36.50
2022-12-05T21:26:28.523Z,36.47
2022-12-05T21:31:38.382Z,43.57
2022-12-05T21:42:02.487Z,35.47
2022-12-05T21:47:13.202Z,33.80
2022-12-05T21:52:21.102Z,36.23
2022-12-05T21:57:32.233Z,37.10
2022-12-05T22:02:41.270Z,35.97
2022-12-05T22:07:49.317Z,34.93
2022-12-05T22:12:57.833Z,32.80
2022-12-05T22:18:05.552Z,31.90
2022-12-05T22:23:16.776Z,32.10
2022-12-05T22:28:22.935Z,33.87
2022-12-05T22:33:31.867Z,33.90
2022-12-05T22:38:42.891Z,35.20
2022-12-05T22:43:51.455Z,32.80
2022-12-05T22:49:00.227Z,32.63
2022-12-05T22:54:08.425Z,28.77
2022-12-05T22:59:18.062Z,31.03
2022-12-05T23:04:28.652Z,33.23
2022-12-05T23:09:36.539Z,45.77
2022-12-05T23:14:45.724Z,38.37
2022-12-05T23:19:53.456Z,35.10
2022-12-05T23:25:01.232Z,33.97
2022-12-05T23:30:10.155Z,31.90
2022-12-05T23:35:18.426Z,31.30
2022-12-05T23:40:27.384Z,30.50
2022-12-05T23:45:37.325Z,31.83
2022-12-05T23:50:45.089Z,31.73
2022-12-05T23:55:53.556Z,31.53
